EGAE/LDY METAR and TAF weather

Enter ICAO airport designator
Station Type Date Time Source
EGAE METAR 2018/10/20 16:50 UTC NOAA

EGAE 201650Z 22008KT 180V250 9999 SCT008 BKN013 17/14 Q1025


Station Type Date Time Source
EGAE Decoded METAR 2018/10/20 16:50 UTC NOAA

Eglinton / Londonderr, United Kingdom (EGAE) 55-03N 007-09W
Oct 20, 2018 - 12:50 PM EDT / 2018.10.20 1650 UTC
Wind: from the SW (220 degrees) at 9 MPH (8 KT) (direction variable):0
Visibility: greater than 7 mile(s):0
Sky conditions: mostly cloudy
Temperature: 62 F (17 C)
Dew Point: 57 F (14 C)
Relative Humidity: 82%
Pressure (altimeter): 30.27 in. Hg (1025 hPa)
ob: EGAE 201650Z 22008KT 180V250 9999 SCT008 BKN013 17/14 Q1025
cycle: 17

Station Type Date Time Source
EGAE TAF UTC NOAA

Error!


Example: see airport list